Time;durP1;ratioP1;P1;durP2;ratioP2;P2;SDS_P1;SDS_P2;PMS_P1;PMS_P2;Temp;Humidity;BMP_temperature;BMP_pressure;BME280_temperature;BME280_humidity;BME280_pressure;Samples;Min_cycle;Max_cycle;Signal;HPM_P1;HPM_P2
2021/03/29 00:00:00;;;;;;;13.50;4.47;;;;;;;8.21;64.65;96064.44;10439456;28;20044;-76
2021/03/29 00:05:01;;;;;;;7.20;3.58;;;;;;;8.21;63.09;96069.78;10438765;28;20075;-75
2021/03/29 00:10:05;;;;;;;6.05;3.58;;;;;;;8.13;63.72;96070.09;10437732;28;20075;-75
2021/03/29 00:15:09;;;;;;;13.65;3.75;;;;;;;8.00;65.50;96063.84;10439219;28;20033;-74
2021/03/29 00:20:19;;;;;;;7.88;3.78;;;;;;;7.90;66.18;96063.56;10439132;28;20090;-75
2021/03/29 00:25:21;;;;;;;7.10;3.67;;;;;;;7.84;65.36;96061.78;10438759;28;20111;-75
2021/03/29 00:30:31;;;;;;;11.80;3.28;;;;;;;7.72;66.06;96059.03;10438827;28;20033;-76
2021/03/29 00:35:35;;;;;;;11.05;3.72;;;;;;;7.60;65.59;96058.13;10447021;28;20427;-76
2021/03/29 00:40:37;;;;;;;6.30;3.90;;;;;;;7.56;68.45;96048.91;10446422;28;20025;-76
2021/03/29 00:45:39;;;;;;;12.00;4.43;;;;;;;7.48;71.00;96050.00;10446374;28;20411;-76
2021/03/29 00:50:57;;;;;;;10.52;4.22;;;;;;;7.40;69.92;96052.97;10446138;28;20831;-75
2021/03/29 00:56:00;;;;;;;6.60;4.40;;;;;;;7.30;69.06;96064.97;10445721;28;20053;-76
2021/03/29 01:01:25;;;;;;;6.95;4.47;;;;;;;7.24;71.29;96059.69;10444213;28;20098;-76
2021/03/29 01:06:31;;;;;;;6.68;4.20;;;;;;;7.12;71.14;96059.59;10444779;28;20056;-76
2021/03/29 01:11:37;;;;;;;11.32;4.55;;;;;;;7.05;72.80;96064.16;10444895;28;20048;-76
2021/03/29 01:16:45;;;;;;;9.27;4.90;;;;;;;6.99;73.70;96065.84;10444977;28;20024;-76
2021/03/29 01:21:55;;;;;;;11.50;4.07;;;;;;;6.98;72.50;96067.69;10445245;28;20049;-76
2021/03/29 01:26:56;;;;;;;5.88;4.28;;;;;;;7.05;74.19;96072.16;10445071;28;20186;-76
2021/03/29 01:31:59;;;;;;;6.38;3.72;;;;;;;7.16;74.48;96060.78;10444994;28;20522;-76
2021/03/29 01:37:01;;;;;;;15.70;7.18;;;;;;;7.16;78.13;96064.28;10443872;28;20021;-77
2021/03/29 01:42:03;;;;;;;22.42;8.75;;;;;;;7.08;82.29;96061.88;10444329;28;20116;-76
2021/03/29 01:47:08;;;;;;;17.90;8.27;;;;;;;7.07;81.00;96051.41;10444254;28;20025;-76
2021/03/29 01:52:09;;;;;;;13.20;6.07;;;;;;;7.14;75.87;96054.81;10444248;28;20112;-76
2021/03/29 01:57:10;;;;;;;8.60;4.57;;;;;;;7.19;72.75;96058.47;10443888;28;20733;-76
2021/03/29 02:02:12;;;;;;;14.77;7.75;;;;;;;7.28;74.73;96053.66;10444102;28;20029;-76
2021/03/29 02:07:14;;;;;;;20.65;11.18;;;;;;;6.85;88.13;96070.47;10445268;28;20827;-75
2021/03/29 02:12:15;;;;;;;42.92;12.18;;;;;;;6.69;91.44;96068.34;10445986;28;20495;-75
2021/03/29 02:17:16;;;;;;;24.33;10.82;;;;;;;6.56;94.98;96074.56;10447537;28;20447;-76
2021/03/29 02:22:17;;;;;;;24.05;9.82;;;;;;;6.40;96.74;96075.88;10447342;28;20116;-76
2021/03/29 02:27:17;;;;;;;29.80;10.90;;;;;;;6.32;96.05;96064.41;10446848;28;20068;-76
2021/03/29 02:32:18;;;;;;;33.47;12.02;;;;;;;6.29;99.23;96078.19;10446952;28;20031;-77
2021/03/29 02:37:18;;;;;;;25.75;12.82;;;;;;;6.24;100.00;96072.66;10447073;28;20063;-76
2021/03/29 02:42:19;;;;;;;22.85;12.95;;;;;;;6.12;100.00;96071.69;10444721;28;20029;-76
2021/03/29 02:47:20;;;;;;;35.53;13.35;;;;;;;6.08;100.00;96067.81;10445268;28;20033;-76
2021/03/29 02:52:21;;;;;;;27.80;12.98;;;;;;;6.06;100.00;96072.56;10445078;28;20047;-71
2021/03/29 02:57:23;;;;;;;49.63;15.48;;;;;;;6.03;100.00;96078.28;10445998;28;20372;-75
2021/03/29 03:02:23;;;;;;;42.55;12.25;;;;;;;5.78;100.00;96078.97;10446316;28;20040;-75
2021/03/29 03:07:24;;;;;;;32.85;10.90;;;;;;;5.74;100.00;96083.09;10445778;28;20048;-75
2021/03/29 03:12:25;;;;;;;20.95;8.13;;;;;;;5.68;99.71;96082.06;10444908;28;20043;-75
2021/03/29 03:17:26;;;;;;;30.77;9.43;;;;;;;5.95;95.81;96074.00;10443990;28;20057;-75
2021/03/29 03:22:26;;;;;;;24.38;7.07;;;;;;;6.10;93.96;96084.44;10443773;28;20215;-75
2021/03/29 03:27:27;;;;;;;22.08;6.20;;;;;;;6.30;89.57;96089.69;10444420;28;20041;-75
2021/03/29 03:32:27;;;;;;;15.85;5.78;;;;;;;6.46;84.62;96093.72;10444553;28;20032;-75
2021/03/29 03:37:28;;;;;;;16.17;6.40;;;;;;;6.53;82.90;96096.34;10444056;28;20534;-76
2021/03/29 03:42:28;;;;;;;7.53;5.68;;;;;;;6.61;85.14;96085.41;10443042;28;20043;-76
2021/03/29 03:47:29;;;;;;;13.45;5.55;;;;;;;6.49;82.76;96085.28;10442220;28;20029;-75
2021/03/29 03:52:30;;;;;;;14.60;5.00;;;;;;;6.59;83.11;96090.97;10439814;28;20032;-75
2021/03/29 03:57:32;;;;;;;17.67;5.68;;;;;;;6.71;81.22;96088.44;10440292;28;20040;-75
2021/03/29 04:02:35;;;;;;;48.00;7.32;;;;;;;6.84;77.34;96087.56;10443495;28;20111;-76
2021/03/29 04:07:35;;;;;;;13.75;4.63;;;;;;;6.76;75.93;96096.63;10451637;28;20084;-75
2021/03/29 04:12:35;;;;;;;7.57;4.17;;;;;;;6.84;74.15;96090.22;10453534;28;20460;-75
2021/03/29 04:17:36;;;;;;;15.00;4.17;;;;;;;6.80;75.07;96065.78;10453867;28;20271;-77
2021/03/29 04:22:37;;;;;;;29.20;6.22;;;;;;;6.93;72.29;96064.03;10452510;28;20337;-76
2021/03/29 04:27:37;;;;;;;35.17;5.55;;;;;;;6.97;71.08;96060.72;10449872;28;20182;-75
2021/03/29 04:32:39;;;;;;;37.70;5.97;;;;;;;6.95;71.96;96075.31;10449909;28;20078;-75
2021/03/29 04:37:40;;;;;;;34.72;6.63;;;;;;;6.77;73.60;96068.06;10459792;28;20035;-75
2021/03/29 04:42:41;;;;;;;70.53;10.32;;;;;;;6.73;76.43;96061.53;10454774;28;20052;-74
2021/03/29 04:47:41;;;;;;;41.88;8.15;;;;;;;6.56;75.54;96080.72;10444951;28;20555;-74
2021/03/29 04:52:42;;;;;;;28.63;7.60;;;;;;;6.49;79.82;96087.97;10447051;28;20081;-74
2021/03/29 04:57:42;;;;;;;42.33;7.80;;;;;;;6.67;82.83;96097.94;10446424;28;20283;-74
2021/03/29 05:02:43;;;;;;;17.73;6.38;;;;;;;6.58;82.18;96094.69;10446904;28;20029;-75
2021/03/29 05:07:45;;;;;;;25.88;6.55;;;;;;;6.55;80.60;96103.13;10448801;28;20507;-75
2021/03/29 05:12:45;;;;;;;30.23;8.20;;;;;;;6.77;82.91;96108.16;10471390;28;20475;-73
2021/03/29 05:17:46;;;;;;;18.58;6.72;;;;;;;6.81;83.74;96102.16;10489450;28;20029;-73
2021/03/29 05:22:46;;;;;;;22.80;7.35;;;;;;;6.92;79.45;96105.16;10480719;28;20484;-73
2021/03/29 05:27:46;;;;;;;23.48;8.90;;;;;;;7.10;73.88;96109.78;10454063;28;20079;-73
2021/03/29 05:32:47;;;;;;;11.90;6.27;;;;;;;7.28;72.97;96103.66;10488748;28;20094;-73
2021/03/29 05:37:47;;;;;;;17.90;6.70;;;;;;;7.25;70.74;96104.91;10489758;28;20812;-73
2021/03/29 05:42:50;;;;;;;28.95;9.57;;;;;;;7.48;72.95;96108.84;10489540;28;20386;-73
2021/03/29 05:47:51;;;;;;;18.58;7.50;;;;;;;7.80;75.90;96103.41;10489451;28;20036;-72
2021/03/29 05:52:51;;;;;;;16.35;7.28;;;;;;;8.08;70.51;96108.25;10488971;28;20094;-72
2021/03/29 06:03:20;;;;;;;36.58;11.02;;;;;;;9.20;68.31;96108.88;10488989;28;20036;-72
2021/03/29 06:08:20;;;;;;;19.75;8.13;;;;;;;11.04;58.96;96108.50;10485740;28;20040;-72
2021/03/29 06:13:26;;;;;;;26.20;8.45;;;;;;;12.71;53.89;96094.47;10483125;28;20043;-73
2021/03/29 06:18:27;;;;;;;24.02;8.27;;;;;;;13.05;47.76;96089.72;10482829;28;20411;-73
2021/03/29 06:23:29;;;;;;;33.65;9.32;;;;;;;14.14;45.89;96085.97;10484474;28;20036;-73
2021/03/29 06:28:29;;;;;;;18.15;6.15;;;;;;;13.72;43.49;96078.69;10477045;28;20885;-74
2021/03/29 06:33:31;;;;;;;22.43;6.47;;;;;;;12.55;44.52;96091.59;10442870;28;20036;-72
2021/03/29 06:38:36;;;;;;;12.07;5.55;;;;;;;11.36;46.48;96102.59;10442945;28;20116;-72
2021/03/29 06:43:37;;;;;;;20.80;7.22;;;;;;;12.40;47.21;96096.81;10448966;28;20029;-73
2021/03/29 06:48:39;;;;;;;21.63;7.18;;;;;;;14.52;41.94;96092.88;10442245;28;20660;-73
2021/03/29 06:54:01;;;;;;;9.95;5.57;;;;;;;13.64;43.13;96096.19;10442170;28;20162;-73
2021/03/29 06:59:02;;;;;;;10.02;5.88;;;;;;;13.84;41.17;96093.63;10479878;28;20505;-77
2021/03/29 07:04:05;;;;;;;15.33;5.83;;;;;;;14.06;40.60;96098.06;10480407;28;20028;-76
2021/03/29 07:09:06;;;;;;;12.27;4.63;;;;;;;15.67;38.20;96098.28;10482446;28;20815;-77
2021/03/29 07:14:07;;;;;;;16.08;4.82;;;;;;;17.36;36.82;96092.53;10482877;28;20042;-76
2021/03/29 07:19:09;;;;;;;14.18;4.70;;;;;;;18.62;34.10;96085.34;10479935;28;20035;-77
2021/03/29 07:24:12;;;;;;;9.38;4.25;;;;;;;19.86;31.65;96093.69;10448176;28;20033;-76
2021/03/29 07:29:17;;;;;;;11.55;3.88;;;;;;;20.37;31.61;96086.50;10448950;28;20083;-75
2021/03/29 07:34:18;;;;;;;8.00;4.05;;;;;;;19.57;31.03;96097.41;10481717;28;20040;-75
2021/03/29 07:39:21;;;;;;;19.88;5.72;;;;;;;19.85;30.80;96092.06;10481264;28;20111;-75
2021/03/29 07:44:22;;;;;;;14.55;3.72;;;;;;;19.10;30.55;96100.00;10479386;28;20039;-76
2021/03/29 07:49:46;;;;;;;21.30;4.53;;;;;;;21.06;30.57;96085.66;10480030;28;20495;-75
2021/03/29 07:54:50;;;;;;;4.82;2.95;;;;;;;20.39;27.77;96081.56;10480883;28;20087;-75
2021/03/29 07:59:52;;;;;;;4.97;2.65;;;;;;;18.07;30.72;96082.13;10472930;28;20139;-76
2021/03/29 08:05:14;;;;;;;10.98;3.30;;;;;;;18.03;30.47;96087.38;10481051;28;20091;-75
2021/03/29 08:10:17;;;;;;;20.60;5.03;;;;;;;20.03;30.20;96085.75;10480007;28;20036;-76
2021/03/29 08:15:17;;;;;;;7.45;2.95;;;;;;;21.79;26.98;96080.16;10481687;28;20419;-78
2021/03/29 08:20:24;;;;;;;5.23;3.00;;;;;;;19.56;28.95;96077.50;10479557;28;20025;-77
2021/03/29 08:25:29;;;;;;;5.30;2.22;;;;;;;18.60;29.21;96075.84;10444338;28;20538;-78
2021/03/29 08:30:41;;;;;;;4.25;2.72;;;;;;;17.53;30.69;96078.53;10439711;28;20029;-77
2021/03/29 08:35:44;;;;;;;5.45;2.47;;;;;;;19.09;29.26;96073.88;10439590;28;20708;-77
2021/03/29 08:40:44;;;;;;;7.47;2.63;;;;;;;17.57;30.77;96083.13;10472882;28;20029;-77
2021/03/29 08:45:46;;;;;;;8.80;2.90;;;;;;;18.54;31.76;96080.53;10480939;28;20020;-78
2021/03/29 08:50:48;;;;;;;40.65;6.68;;;;;;;19.85;29.08;96070.25;10480996;28;20027;-77
2021/03/29 08:55:50;;;;;;;7.97;2.65;;;;;;;19.33;28.94;96073.78;10488486;28;20048;-77
2021/03/29 09:00:51;;;;;;;4.53;2.20;;;;;;;16.76;31.52;96077.13;10472904;28;20495;-77
2021/03/29 09:05:51;;;;;;;8.45;2.80;;;;;;;14.88;33.78;96086.00;10445346;28;20060;-77
2021/03/29 09:10:52;;;;;;;4.07;2.60;;;;;;;14.00;36.66;96080.22;10444255;28;20116;-77
2021/03/29 09:15:52;;;;;;;5.30;2.42;;;;;;;15.84;34.02;96059.25;10444890;28;20104;-77
2021/03/29 09:20:53;;;;;;;3.13;1.92;;;;;;;16.57;33.32;96060.66;10445608;28;20048;-77
2021/03/29 09:25:53;;;;;;;25.80;4.13;;;;;;;17.47;34.59;96050.59;10445230;28;20403;-78
2021/03/29 09:30:59;;;;;;;7.90;2.50;;;;;;;17.51;34.64;96051.66;10444733;28;20056;-77
2021/03/29 09:36:08;;;;;;;8.35;3.03;;;;;;;16.93;32.87;96046.91;10473756;28;20028;-76
2021/03/29 09:41:30;;;;;;;5.60;2.47;;;;;;;17.52;32.71;96039.66;10484868;28;20029;-75
2021/03/29 09:46:32;;;;;;;5.75;2.17;;;;;;;19.38;31.54;96032.00;10485189;28;20108;-78
2021/03/29 09:51:34;;;;;;;4.45;2.60;;;;;;;23.16;27.32;96010.88;10483110;28;20448;-78
2021/03/29 09:56:36;;;;;;;6.75;2.67;;;;;;;23.54;24.72;96012.09;10490596;28;20029;-78
2021/03/29 10:01:43;;;;;;;5.20;2.30;;;;;;;23.90;24.92;95997.19;10470292;28;20472;-77
2021/03/29 10:06:51;;;;;;;5.53;2.07;;;;;;;25.84;23.75;95986.50;10463663;28;20934;-78
2021/03/29 10:11:52;;;;;;;6.68;2.15;;;;;;;27.66;21.43;95986.19;10463762;28;20419;-76
2021/03/29 10:16:53;;;;;;;3.37;1.87;;;;;;;27.88;21.93;95971.81;10469252;28;20020;-77
2021/03/29 10:22:14;;;;;;;3.28;1.80;;;;;;;26.76;21.54;95985.22;10465166;28;20286;-77
2021/03/29 10:27:16;;;;;;;8.88;2.33;;;;;;;26.81;21.85;95984.16;10480017;28;20025;-77
2021/03/29 10:32:20;;;;;;;4.32;1.80;;;;;;;26.52;23.22;95965.91;10470807;28;20090;-77
2021/03/29 10:37:23;;;;;;;6.53;1.90;;;;;;;26.93;21.81;95966.78;10488795;28;20020;-77
2021/03/29 10:42:27;;;;;;;5.28;1.95;;;;;;;24.38;24.08;95965.03;10488391;28;20054;-76
2021/03/29 10:47:27;;;;;;;6.50;2.13;;;;;;;25.23;23.49;95954.88;10488389;28;20024;-77
2021/03/29 10:52:27;;;;;;;6.55;2.45;;;;;;;26.82;21.94;95949.94;10447191;28;20032;-77
2021/03/29 10:57:28;;;;;;;9.60;2.77;;;;;;;27.07;22.92;95942.38;10446891;28;20017;-77
2021/03/29 11:02:30;;;;;;;7.13;2.15;;;;;;;24.53;23.95;95945.19;10446870;28;20271;-77
2021/03/29 11:07:30;;;;;;;5.05;2.03;;;;;;;26.44;21.99;95916.06;10444070;28;20053;-76
2021/03/29 11:12:30;;;;;;;8.17;2.27;;;;;;;24.13;24.01;95914.59;10443092;28;20040;-73
2021/03/29 11:17:33;;;;;;;7.87;2.57;;;;;;;22.97;27.05;95925.34;10473017;28;20858;-73
2021/03/29 11:22:33;;;;;;;3.13;2.35;;;;;;;19.30;27.69;95919.81;10484128;28;20055;-73
2021/03/29 11:27:34;;;;;;;6.57;2.67;;;;;;;16.78;32.26;95916.66;10483696;28;20037;-72
2021/03/29 11:32:34;;;;;;;5.77;2.10;;;;;;;17.77;31.90;95910.00;10484203;28;20054;-73
2021/03/29 11:37:35;;;;;;;9.27;2.90;;;;;;;16.35;34.75;95906.34;10482907;28;20686;-72
2021/03/29 11:42:35;;;;;;;2.95;1.95;;;;;;;16.02;34.03;95900.59;10482966;28;20021;-73
2021/03/29 11:47:36;;;;;;;7.07;2.40;;;;;;;16.08;35.25;95890.53;10483241;28;20086;-73
2021/03/29 11:52:37;;;;;;;6.82;2.90;;;;;;;16.01;37.16;95875.34;10482558;28;20124;-73
2021/03/29 11:57:40;;;;;;;8.18;2.50;;;;;;;16.12;34.14;95864.47;10483051;28;20020;-73
2021/03/29 12:02:46;;;;;;;4.55;2.30;;;;;;;15.08;34.87;95866.72;10480235;28;20039;-73
2021/03/29 12:12:49;;;;;;;5.18;2.25;;;;;;;14.63;35.69;95852.97;10482953;28;20028;-73
2021/03/29 12:17:50;;;;;;;5.57;2.10;;;;;;;14.73;36.08;95859.47;10482488;28;20085;-73
2021/03/29 12:22:51;;;;;;;8.07;3.00;;;;;;;15.18;35.53;95860.47;10483083;28;20033;-72
2021/03/29 12:27:53;;;;;;;11.80;4.20;;;;;;;15.29;35.41;95847.72;10486007;28;20136;-73
2021/03/29 12:32:54;;;;;;;7.85;2.50;;;;;;;14.45;36.56;95848.06;10491043;28;20039;-73
2021/03/29 12:37:55;;;;;;;17.17;4.60;;;;;;;14.76;37.84;95838.06;10491424;28;20082;-73
2021/03/29 12:48:01;;;;;;;51.38;18.55;;;;;;;14.97;37.10;95830.75;10489614;28;20115;-73
2021/03/29 12:53:03;;;;;;;14.25;5.13;;;;;;;15.08;36.82;95831.53;10488820;28;20368;-72
2021/03/29 12:58:03;;;;;;;17.30;5.18;;;;;;;14.83;36.37;95837.78;10489503;28;20024;-72
2021/03/29 13:03:03;;;;;;;10.70;2.37;;;;;;;14.60;37.50;95831.03;10449724;28;20028;-73
2021/03/29 13:13:07;;;;;;;46.28;13.80;;;;;;;13.93;38.03;95829.09;10491991;28;20353;-76
2021/03/29 13:18:07;;;;;;;4.82;1.85;;;;;;;13.88;37.40;95812.06;10492446;28;20024;-76
2021/03/29 13:23:08;;;;;;;40.20;12.60;;;;;;;13.68;37.89;95813.63;10492156;28;20395;-76
2021/03/29 13:28:10;;;;;;;59.80;19.23;;;;;;;14.09;37.07;95805.59;10491736;28;20286;-76
2021/03/29 13:33:10;;;;;;;11.02;3.88;;;;;;;14.32;38.04;95795.34;10491185;28;20154;-75
2021/03/29 13:38:12;;;;;;;117.18;32.58;;;;;;;14.52;37.84;95794.50;10490769;28;20392;-76
2021/03/29 13:43:15;;;;;;;174.50;49.72;;;;;;;14.75;36.37;95781.50;10489469;28;20340;-76
2021/03/29 13:48:15;;;;;;;4.35;1.65;;;;;;;14.59;35.21;95780.72;10490634;28;20021;-77
2021/03/29 13:53:16;;;;;;;26.03;8.80;;;;;;;14.16;36.55;95778.28;10489484;28;20870;-76
2021/03/29 13:58:16;;;;;;;11.30;3.17;;;;;;;14.32;35.99;95777.22;10490011;28;20319;-76
2021/03/29 14:03:17;;;;;;;30.53;11.50;;;;;;;14.56;35.40;95768.53;10489902;28;20035;-77
2021/03/29 14:08:17;;;;;;;10.10;3.00;;;;;;;14.42;36.74;95760.16;10469248;28;20671;-76
2021/03/29 14:13:18;;;;;;;15.53;5.60;;;;;;;14.41;36.24;95758.53;10444936;28;20458;-76
2021/03/29 14:18:18;;;;;;;4.73;1.70;;;;;;;13.34;36.32;95770.84;10445154;28;20271;-76
2021/03/29 14:23:19;;;;;;;6.90;1.83;;;;;;;13.71;36.63;95767.16;10444171;28;20032;-77
2021/03/29 14:28:19;;;;;;;7.07;1.65;;;;;;;13.53;35.76;95765.78;10456206;28;20021;-76
2021/03/29 14:33:21;;;;;;;8.82;2.05;;;;;;;14.06;35.97;95768.28;10485373;28;20111;-76
2021/03/29 14:48:25;;;;;;;5.00;2.65;;;;;;;14.26;36.30;95769.38;10442841;28;20079;-77
2021/03/29 14:53:25;;;;;;;4.20;1.73;;;;;;;13.87;35.59;95761.78;10443321;28;20031;-76
2021/03/29 14:58:25;;;;;;;6.20;1.70;;;;;;;13.99;34.40;95779.34;10443316;28;20017;-76
2021/03/29 15:03:26;;;;;;;6.40;2.25;;;;;;;13.88;34.08;95771.53;10450930;28;20115;-77
2021/03/29 15:08:26;;;;;;;5.75;2.35;;;;;;;13.85;34.69;95778.28;10483042;28;20053;-75
2021/03/29 15:13:27;;;;;;;6.23;2.30;;;;;;;13.71;34.30;95788.78;10483910;28;20028;-76
2021/03/29 15:18:27;;;;;;;13.63;5.20;;;;;;;13.54;34.69;95793.63;10462279;28;20381;-76
2021/03/29 15:23:27;;;;;;;8.00;2.57;;;;;;;13.43;34.69;95785.47;10440785;28;20726;-76
2021/03/29 15:28:28;;;;;;;10.80;2.40;;;;;;;13.21;34.67;95792.91;10442219;28;20029;-76
2021/03/29 15:33:28;;;;;;;7.53;2.88;;;;;;;13.18;35.57;95806.94;10441739;28;20079;-76
2021/03/29 15:38:29;;;;;;;12.23;3.63;;;;;;;13.09;35.19;95803.91;10440780;28;20059;-76
2021/03/29 15:43:29;;;;;;;13.10;2.93;;;;;;;12.95;36.43;95807.09;10441744;28;20112;-76
2021/03/29 15:48:30;;;;;;;20.10;3.50;;;;;;;12.95;36.01;95804.41;10441136;28;20283;-76
2021/03/29 15:53:30;;;;;;;5.03;2.63;;;;;;;12.84;36.30;95805.41;10441336;28;20029;-76
2021/03/29 15:58:33;;;;;;;6.30;3.00;;;;;;;12.58;36.18;95810.63;10480994;28;20020;-77
2021/03/29 16:03:41;;;;;;;9.75;3.60;;;;;;;12.71;35.36;95814.78;10489133;28;20270;-77
2021/03/29 16:08:42;;;;;;;14.13;3.58;;;;;;;12.69;35.46;95819.59;10490563;28;20048;-77
2021/03/29 16:13:42;;;;;;;11.70;4.40;;;;;;;12.64;35.83;95825.78;10491029;28;20098;-77
2021/03/29 16:18:43;;;;;;;11.90;4.28;;;;;;;12.52;36.42;95822.47;10490905;28;20024;-77
2021/03/29 16:23:44;;;;;;;7.03;2.92;;;;;;;12.37;36.30;95825.84;10490395;28;20035;-76
2021/03/29 16:28:44;;;;;;;8.15;3.83;;;;;;;12.30;37.70;95836.03;10489996;28;20455;-76
2021/03/29 16:33:44;;;;;;;9.63;3.93;;;;;;;12.12;38.24;95835.31;10490504;28;20028;-77
2021/03/29 16:38:45;;;;;;;12.88;4.45;;;;;;;12.02;39.25;95837.94;10489141;28;20039;-76
2021/03/29 16:43:45;;;;;;;8.57;4.88;;;;;;;11.85;38.87;95848.00;10488471;28;20047;-77
2021/03/29 16:48:46;;;;;;;14.13;5.77;;;;;;;11.70;38.84;95849.44;10490018;28;20392;-77
2021/03/29 16:53:46;;;;;;;12.43;6.13;;;;;;;11.55;40.90;95843.88;10489881;28;20202;-76
2021/03/29 16:58:46;;;;;;;10.53;3.83;;;;;;;11.44;40.84;95843.75;10451701;28;20778;-76
2021/03/29 17:03:47;;;;;;;12.60;4.67;;;;;;;11.23;40.95;95848.09;10448378;28;20376;-76
2021/03/29 17:08:47;;;;;;;11.60;4.10;;;;;;;11.07;40.95;95849.75;10469292;28;20303;-76
2021/03/29 17:13:47;;;;;;;11.23;4.93;;;;;;;11.02;41.32;95859.63;10487382;28;20025;-75
2021/03/29 17:18:49;;;;;;;14.07;7.00;;;;;;;10.84;42.98;95861.53;10469518;28;20025;-73
2021/03/29 17:23:49;;;;;;;23.45;6.53;;;;;;;10.87;41.29;95873.66;10445956;28;20313;-72
2021/03/29 17:28:49;;;;;;;20.33;8.20;;;;;;;10.74;41.47;95875.66;10445863;28;20027;-72
2021/03/29 17:33:50;;;;;;;23.47;8.20;;;;;;;10.79;41.82;95882.97;10446915;28;20444;-73
2021/03/29 17:38:51;;;;;;;19.10;7.43;;;;;;;10.72;42.38;95877.75;10446383;28;20021;-72
2021/03/29 17:43:51;;;;;;;21.73;8.07;;;;;;;10.70;42.48;95887.97;10445891;28;20036;-73
2021/03/29 17:48:52;;;;;;;16.17;7.20;;;;;;;10.65;42.61;95887.88;10483863;28;20028;-72
2021/03/29 17:53:52;;;;;;;13.00;7.00;;;;;;;10.61;42.28;95897.47;10486302;28;20052;-71
2021/03/29 17:58:52;;;;;;;17.55;8.30;;;;;;;10.73;42.77;95902.75;10487187;28;20035;-72
2021/03/29 18:03:53;;;;;;;13.87;4.97;;;;;;;10.87;41.50;95905.94;10487106;28;20036;-72
2021/03/29 18:08:53;;;;;;;15.03;4.87;;;;;;;10.83;42.05;95908.31;10488289;28;20078;-72
2021/03/29 18:13:53;;;;;;;18.95;7.97;;;;;;;10.60;43.39;95912.81;10489449;28;20029;-72
2021/03/29 18:18:54;;;;;;;23.90;9.90;;;;;;;10.38;43.53;95920.78;10489593;28;20765;-72
2021/03/29 18:23:54;;;;;;;27.50;11.77;;;;;;;10.24;44.14;95928.28;10474505;28;20029;-72
2021/03/29 18:28:54;;;;;;;28.67;11.80;;;;;;;10.35;45.41;95928.47;10460571;28;20025;-72
2021/03/29 18:33:55;;;;;;;14.47;8.10;;;;;;;10.10;46.51;95932.31;10459872;28;20048;-73
2021/03/29 18:38:55;;;;;;;15.77;8.73;;;;;;;10.14;47.84;95935.34;10446822;28;20059;-73
2021/03/29 18:43:56;;;;;;;20.08;9.15;;;;;;;10.06;47.23;95945.41;10459470;28;20024;-74
2021/03/29 18:48:56;;;;;;;19.98;8.25;;;;;;;10.24;46.98;95939.03;10472439;28;20044;-73
2021/03/29 18:53:57;;;;;;;24.97;8.73;;;;;;;10.32;47.17;95945.06;10461843;28;20028;-73
2021/03/29 18:58:57;;;;;;;18.42;8.52;;;;;;;10.36;45.68;95948.94;10488498;28;20059;-73
2021/03/29 19:03:58;;;;;;;18.73;9.17;;;;;;;10.37;46.79;95951.38;10488433;28;20024;-73
2021/03/29 19:08:59;;;;;;;30.55;10.98;;;;;;;10.13;46.36;95956.03;10484268;28;21239;-73
2021/03/29 19:14:00;;;;;;;21.92;9.32;;;;;;;9.98;45.69;95959.22;10484175;28;20021;-73
2021/03/29 19:19:00;;;;;;;23.58;9.25;;;;;;;9.87;46.03;95960.06;10482732;28;20024;-73
2021/03/29 19:24:01;;;;;;;18.38;7.90;;;;;;;9.95;45.98;95964.25;10442372;28;20035;-73
2021/03/29 19:29:01;;;;;;;16.20;8.75;;;;;;;10.17;47.95;95957.19;10469925;28;20058;-72
2021/03/29 19:34:02;;;;;;;22.03;8.80;;;;;;;10.30;46.88;95969.50;10473689;28;20111;-72
2021/03/29 19:39:04;;;;;;;23.70;10.68;;;;;;;10.35;46.85;95977.66;10444516;28;20621;-73
2021/03/29 19:44:05;;;;;;;18.13;7.63;;;;;;;10.25;47.33;95986.31;10448118;28;20025;-73
2021/03/29 19:49:05;;;;;;;11.48;5.93;;;;;;;10.06;45.77;95993.75;10483368;28;20024;-73
2021/03/29 19:54:06;;;;;;;21.55;8.68;;;;;;;9.91;47.69;95988.88;10472494;28;20033;-73
2021/03/29 19:59:07;;;;;;;15.93;7.93;;;;;;;9.80;48.46;95994.31;10440714;28;20021;-72
2021/03/29 20:04:39;;;;;;;18.92;8.95;;;;;;;9.68;49.67;96002.38;10441360;28;20044;-72
2021/03/29 20:09:31;;;;;;;18.42;7.68;;;;;;;9.70;49.55;95992.22;10468138;28;20431;-72
2021/03/29 20:14:32;;;;;;;15.43;5.55;;;;;;;9.60;48.97;95997.34;10470782;28;20051;-72
2021/03/29 20:19:34;;;;;;;11.77;4.93;;;;;;;9.56;48.70;96000.50;10443217;28;20485;-72
2021/03/29 20:24:36;;;;;;;16.95;6.22;;;;;;;9.51;48.67;96004.97;10469726;28;20033;-72
2021/03/29 20:29:36;;;;;;;9.63;4.50;;;;;;;9.55;48.69;96008.81;10441585;28;20117;-72
2021/03/29 20:34:37;;;;;;;13.90;5.05;;;;;;;9.40;49.56;96011.97;10440844;28;20033;-72
2021/03/29 20:39:37;;;;;;;10.10;4.82;;;;;;;9.22;50.74;96003.00;10476186;28;20477;-73
2021/03/29 20:44:38;;;;;;;15.75;4.95;;;;;;;9.09;52.20;95991.66;10482069;28;20032;-72
2021/03/29 20:49:38;;;;;;;11.30;4.23;;;;;;;9.00;52.74;95992.00;10485179;28;20066;-71
2021/03/29 20:54:39;;;;;;;17.10;5.27;;;;;;;8.84;53.86;95990.81;10489347;28;20282;-72
2021/03/29 20:59:40;;;;;;;9.00;4.40;;;;;;;8.74;54.96;95985.22;10483872;28;20021;-71
2021/03/29 21:04:40;;;;;;;10.17;4.73;;;;;;;8.72;54.90;95972.03;10446768;28;20061;-73
2021/03/29 21:09:41;;;;;;;10.80;4.23;;;;;;;8.68;56.88;95962.84;10450751;28;20323;-75
2021/03/29 21:14:42;;;;;;;8.13;4.18;;;;;;;8.64;55.34;95969.69;10459533;28;20086;-74
2021/03/29 21:19:42;;;;;;;15.48;4.75;;;;;;;8.51;57.05;95964.53;10450899;28;20545;-74
2021/03/29 21:24:43;;;;;;;11.30;4.43;;;;;;;8.39;58.12;95961.81;10450411;28;20063;-74
2021/03/29 21:30:02;;;;;;;11.20;4.28;;;;;;;8.33;58.42;95966.22;10450509;28;20757;-75
2021/03/29 21:35:07;;;;;;;12.98;4.63;;;;;;;8.25;60.08;95954.97;10449988;28;20033;-74
2021/03/29 21:40:08;;;;;;;10.00;4.57;;;;;;;8.12;61.00;95969.38;10449565;28;20028;-75
2021/03/29 21:45:09;;;;;;;15.48;4.95;;;;;;;8.02;62.20;95956.53;10449796;28;20646;-75
2021/03/29 21:50:10;;;;;;;8.93;4.72;;;;;;;7.93;63.00;95948.00;10449820;28;20025;-75
2021/03/29 21:55:11;;;;;;;9.30;3.72;;;;;;;7.87;65.48;95951.59;10447722;28;20555;-74
2021/03/29 22:00:15;;;;;;;9.90;4.05;;;;;;;7.87;67.93;95949.72;10448976;28;20135;-74
2021/03/29 22:05:16;;;;;;;9.15;4.15;;;;;;;7.87;70.72;95956.97;10448676;28;20052;-74
2021/03/29 22:10:16;;;;;;;11.05;4.07;;;;;;;7.86;72.78;95950.78;10445277;28;20716;-74
2021/03/29 22:15:20;;;;;;;11.57;5.30;;;;;;;7.91;74.44;95952.78;10474385;28;20097;-74
2021/03/29 22:20:21;;;;;;;7.32;3.97;;;;;;;7.93;74.67;95957.91;10478419;28;20025;-74
2021/03/29 22:25:22;;;;;;;7.47;4.13;;;;;;;7.89;75.69;95956.72;10444248;28;20059;-74
2021/03/29 22:30:27;;;;;;;17.53;5.10;;;;;;;7.92;78.77;95956.28;10444629;28;20060;-74
2021/03/29 22:45:47;;;;;;;11.82;5.97;;;;;;;7.94;78.93;95948.81;10444218;28;20090;-75
2021/03/29 22:50:47;;;;;;;8.53;4.83;;;;;;;8.00;77.71;95948.72;10444555;28;20055;-75
2021/03/29 22:55:47;;;;;;;10.77;5.30;;;;;;;8.02;78.65;95951.19;10443231;28;20337;-75
2021/03/29 23:00:48;;;;;;;9.03;5.23;;;;;;;8.08;77.35;95955.66;10443854;28;20549;-74
2021/03/29 23:05:48;;;;;;;13.93;5.47;;;;;;;8.10;77.89;95956.22;10443820;28;20823;-74
2021/03/29 23:10:48;;;;;;;9.60;3.90;;;;;;;8.19;77.76;95962.91;10441116;28;20043;-74
2021/03/29 23:15:49;;;;;;;8.50;3.93;;;;;;;8.15;78.32;95953.69;10474664;28;20085;-75
2021/03/29 23:20:49;;;;;;;9.67;4.27;;;;;;;8.18;79.50;95955.91;10483422;28;20029;-75
2021/03/29 23:25:49;;;;;;;8.63;3.83;;;;;;;8.28;78.90;95950.00;10484304;28;21206;-76
2021/03/29 23:30:50;;;;;;;17.83;4.30;;;;;;;8.18;79.11;95944.38;10483701;28;20499;-75
2021/03/29 23:35:50;;;;;;;7.37;3.73;;;;;;;7.93;80.39;95945.34;10484283;28;20343;-75
2021/03/29 23:40:51;;;;;;;11.52;4.60;;;;;;;7.85;81.58;95937.63;10483957;28;20024;-76
2021/03/29 23:45:51;;;;;;;9.80;4.30;;;;;;;7.91;82.06;95939.41;10481705;28;20483;-74
2021/03/29 23:50:52;;;;;;;7.32;4.22;;;;;;;7.92;83.08;95933.00;10484004;28;20290;-76
2021/03/29 23:55:52;;;;;;;9.77;4.45;;;;;;;7.90;84.62;95934.25;10483219;28;20029;-76
